Time;durP1;ratioP1;P1;durP2;ratioP2;P2;SDS_P1;SDS_P2;PMS_P1;PMS_P2;Temp;Humidity;BMP_temperature;BMP_pressure;BME280_temperature;BME280_humidity;BME280_pressure;Samples;Min_cycle;Max_cycle;Signal;HPM_P1;HPM_P2
2023/12/14 00:00:44;;;;;;;13.40;7.63;;;3.80;82.20;;;;;;5071758;28;20067;-84
2023/12/14 00:03:28;;;;;;;13.10;7.28;;;3.80;82.10;;;;;;5056432;28;20071;-84
2023/12/14 00:06:13;;;;;;;13.25;8.00;;;3.80;82.30;;;;;;5071165;28;20051;-84
2023/12/14 00:08:57;;;;;;;15.90;7.32;;;3.80;82.00;;;;;;5085202;28;20040;-83
2023/12/14 00:11:42;;;;;;;15.82;7.53;;;3.80;81.90;;;;;;5070962;28;20043;-83
2023/12/14 00:14:26;;;;;;;14.07;7.05;;;3.80;82.30;;;;;;5071317;28;20408;-83
2023/12/14 00:17:10;;;;;;;15.02;8.07;;;3.80;82.20;;;;;;5070849;28;20090;-84
2023/12/14 00:19:54;;;;;;;12.35;7.68;;;3.80;82.40;;;;;;5056456;28;20035;-84
2023/12/14 00:22:38;;;;;;;12.32;6.68;;;3.80;81.90;;;;;;5071669;28;20040;-84
2023/12/14 00:25:22;;;;;;;12.60;6.57;;;3.70;81.90;;;;;;5071027;28;20042;-84
2023/12/14 00:28:06;;;;;;;13.35;7.43;;;3.70;81.90;;;;;;5070683;28;20039;-84
2023/12/14 00:30:51;;;;;;;13.52;6.97;;;3.70;81.00;;;;;;5071343;28;20495;-83
2023/12/14 00:33:35;;;;;;;10.75;6.85;;;3.70;81.70;;;;;;5071262;28;20059;-84
2023/12/14 00:36:19;;;;;;;13.50;7.03;;;3.70;82.00;;;;;;5070821;28;20059;-84
2023/12/14 00:39:04;;;;;;;10.25;5.88;;;3.70;81.90;;;;;;5071161;28;20061;-85
2023/12/14 00:41:48;;;;;;;14.15;6.85;;;3.70;82.10;;;;;;5055907;28;20071;-83
2023/12/14 00:44:32;;;;;;;13.13;6.88;;;3.70;81.60;;;;;;5043643;28;20443;-84
2023/12/14 00:47:16;;;;;;;14.25;7.45;;;3.70;82.10;;;;;;5070531;28;20086;-84
2023/12/14 00:50:00;;;;;;;15.90;6.93;;;3.70;81.90;;;;;;5071410;28;20508;-84
2023/12/14 00:52:44;;;;;;;9.85;6.20;;;3.70;81.50;;;;;;5071139;28;20039;-83
2023/12/14 00:55:28;;;;;;;12.27;7.07;;;3.60;81.80;;;;;;5070258;28;20137;-84
2023/12/14 00:58:13;;;;;;;13.30;6.57;;;3.60;81.70;;;;;;5071847;28;20047;-84
2023/12/14 01:00:57;;;;;;;11.70;6.30;;;3.60;81.70;;;;;;5055798;28;20086;-84
2023/12/14 01:03:41;;;;;;;10.27;6.45;;;3.60;82.30;;;;;;5071230;28;20136;-84
2023/12/14 01:06:25;;;;;;;10.23;5.80;;;3.60;81.80;;;;;;5054589;28;20403;-84
2023/12/14 01:09:09;;;;;;;11.77;6.38;;;3.60;81.40;;;;;;5070704;28;20407;-86
2023/12/14 01:11:53;;;;;;;10.15;6.13;;;3.60;81.40;;;;;;5059898;28;20082;-83
2023/12/14 01:14:37;;;;;;;10.40;6.60;;;3.60;81.70;;;;;;5070640;28;20052;-84
2023/12/14 01:17:22;;;;;;;10.48;5.80;;;3.60;81.10;;;;;;5054324;28;20165;-84
2023/12/14 01:20:07;;;;;;;9.60;5.90;;;3.60;80.40;;;;;;5070486;28;20043;-84
2023/12/14 01:22:51;;;;;;;9.30;5.88;;;3.60;81.20;;;;;;5069741;28;20466;-84
2023/12/14 01:25:36;;;;;;;9.38;5.88;;;3.60;80.50;;;;;;5073684;28;20101;-83
2023/12/14 01:28:20;;;;;;;15.43;5.85;;;3.60;81.10;;;;;;5060855;28;20117;-83
2023/12/14 01:31:05;;;;;;;9.93;5.05;;;3.50;81.00;;;;;;5087589;28;20066;-83
2023/12/14 01:33:49;;;;;;;8.73;5.30;;;3.50;80.30;;;;;;5074492;28;20557;-83
2023/12/14 01:36:33;;;;;;;10.07;5.82;;;3.50;80.30;;;;;;5087579;28;20122;-83
2023/12/14 01:39:17;;;;;;;10.98;5.93;;;3.50;80.20;;;;;;5087293;28;20549;-84
2023/12/14 01:42:02;;;;;;;10.02;5.82;;;3.50;80.00;;;;;;5074439;28;20098;-84
2023/12/14 01:44:46;;;;;;;11.68;5.75;;;3.50;80.30;;;;;;5059513;28;20039;-83
2023/12/14 01:47:30;;;;;;;9.00;5.85;;;3.50;80.90;;;;;;5073620;28;20039;-83
2023/12/14 01:50:14;;;;;;;11.35;6.30;;;3.50;80.70;;;;;;5074299;28;20599;-85
2023/12/14 01:52:58;;;;;;;11.55;6.30;;;3.50;81.40;;;;;;5074227;28;20511;-83
2023/12/14 01:55:42;;;;;;;11.40;5.78;;;3.50;81.00;;;;;;5074196;28;20068;-84
2023/12/14 01:58:27;;;;;;;12.55;6.18;;;3.50;81.20;;;;;;5075433;28;20043;-83
2023/12/14 02:01:19;;;;;;;10.48;6.82;;;3.50;81.70;;;;;;5085559;28;20500;-83
2023/12/14 02:04:06;;;;;;;14.20;6.55;;;3.50;81.70;;;;;;5074406;28;20499;-83
2023/12/14 02:06:50;;;;;;;11.95;6.75;;;3.50;80.90;;;;;;5087035;28;20433;-83
2023/12/14 02:09:35;;;;;;;12.35;6.43;;;3.50;81.20;;;;;;5073251;28;20047;-83
2023/12/14 02:12:19;;;;;;;10.20;6.35;;;3.50;81.50;;;;;;5073621;28;20093;-84
2023/12/14 02:15:03;;;;;;;13.68;6.55;;;3.50;81.30;;;;;;5073810;28;20132;-83
2023/12/14 02:17:48;;;;;;;13.63;6.85;;;3.50;81.00;;;;;;5086944;28;20044;-83
2023/12/14 02:20:32;;;;;;;13.60;7.03;;;3.50;81.40;;;;;;5061655;28;20055;-83
2023/12/14 02:23:16;;;;;;;14.38;7.07;;;3.50;81.70;;;;;;5058527;28;20082;-83
2023/12/14 02:26:00;;;;;;;12.55;6.43;;;3.50;81.20;;;;;;5073957;28;20400;-83
2023/12/14 02:28:44;;;;;;;11.43;6.82;;;3.50;81.50;;;;;;5073185;28;20093;-83
2023/12/14 02:31:28;;;;;;;13.55;7.97;;;3.50;80.90;;;;;;5086435;28;20043;-83
2023/12/14 02:34:12;;;;;;;12.73;6.95;;;3.50;81.10;;;;;;5045953;28;20066;-83
2023/12/14 02:36:56;;;;;;;13.32;6.43;;;3.50;81.30;;;;;;5073199;28;20055;-82
2023/12/14 02:39:41;;;;;;;19.65;7.88;;;3.50;81.50;;;;;;5073208;28;20039;-83
2023/12/14 02:42:25;;;;;;;14.63;7.85;;;3.50;81.40;;;;;;5072968;28;20089;-83
2023/12/14 02:45:10;;;;;;;14.48;7.63;;;3.50;81.30;;;;;;5073615;28;20043;-83
2023/12/14 02:47:54;;;;;;;15.32;7.10;;;3.50;81.70;;;;;;5075486;28;20489;-83
2023/12/14 02:50:39;;;;;;;15.65;7.53;;;3.50;81.80;;;;;;5086091;28;20043;-83
2023/12/14 02:53:23;;;;;;;15.45;8.25;;;3.50;81.80;;;;;;5084300;28;20081;-84
2023/12/14 02:56:10;;;;;;;16.48;8.50;;;3.50;81.90;;;;;;5059179;28;20107;-83
2023/12/14 02:58:54;;;;;;;18.90;10.13;;;3.50;81.90;;;;;;5073126;28;20043;-83
2023/12/14 03:01:39;;;;;;;20.02;8.82;;;3.50;82.20;;;;;;5072759;28;20101;-83
2023/12/14 03:04:23;;;;;;;20.23;8.70;;;3.50;82.00;;;;;;5057652;28;20067;-85
2023/12/14 03:07:07;;;;;;;21.00;9.02;;;3.50;82.00;;;;;;5086441;28;20043;-83
2023/12/14 03:09:51;;;;;;;17.35;8.43;;;3.50;82.10;;;;;;5073111;28;20094;-83
2023/12/14 03:12:35;;;;;;;17.30;8.43;;;3.50;82.20;;;;;;5085604;28;20043;-83
2023/12/14 03:15:19;;;;;;;18.05;8.27;;;3.50;82.00;;;;;;5072527;28;20047;-84
2023/12/14 03:18:04;;;;;;;21.48;8.80;;;3.50;82.20;;;;;;5072682;28;20435;-83
2023/12/14 03:20:48;;;;;;;19.05;8.60;;;3.50;81.70;;;;;;5072495;28;20048;-83
2023/12/14 03:23:32;;;;;;;15.20;7.88;;;3.50;81.70;;;;;;5085659;28;20063;-83
2023/12/14 03:26:16;;;;;;;18.20;9.25;;;3.50;81.40;;;;;;5072618;28;20078;-83
2023/12/14 03:29:01;;;;;;;15.57;8.15;;;3.50;81.80;;;;;;5057548;28;20055;-83
2023/12/14 03:31:45;;;;;;;19.00;8.25;;;3.50;81.50;;;;;;5072074;28;20044;-83
2023/12/14 03:34:29;;;;;;;21.20;8.95;;;3.50;81.70;;;;;;5072095;28;20044;-84
2023/12/14 03:37:13;;;;;;;14.40;7.20;;;3.50;81.70;;;;;;5072301;28;20499;-83
2023/12/14 03:39:57;;;;;;;16.40;7.65;;;3.50;81.30;;;;;;5072422;28;20039;-83
2023/12/14 03:42:41;;;;;;;15.23;8.63;;;3.50;81.50;;;;;;5071387;28;20070;-83
2023/12/14 03:45:25;;;;;;;17.35;8.90;;;3.50;81.90;;;;;;5072169;28;20051;-83
2023/12/14 03:48:09;;;;;;;20.50;9.20;;;3.50;81.80;;;;;;5072345;28;20055;-83
2023/12/14 03:50:53;;;;;;;17.83;8.48;;;3.50;81.90;;;;;;5071506;28;20109;-83
2023/12/14 03:53:37;;;;;;;22.92;8.90;;;3.50;82.00;;;;;;5084978;28;20043;-83
2023/12/14 03:56:22;;;;;;;19.27;8.80;;;3.50;82.10;;;;;;5085423;28;20046;-84
2023/12/14 03:59:07;;;;;;;17.77;8.75;;;3.50;82.40;;;;;;5071935;28;20082;-83
2023/12/14 04:01:51;;;;;;;20.33;9.43;;;3.50;82.10;;;;;;5071501;28;20108;-83
2023/12/14 04:04:35;;;;;;;23.20;9.05;;;3.50;82.10;;;;;;5071253;28;20032;-83
2023/12/14 04:07:19;;;;;;;17.88;9.40;;;3.50;82.00;;;;;;5071782;28;20043;-83
2023/12/14 04:10:03;;;;;;;14.65;8.65;;;3.50;82.10;;;;;;5071557;28;20064;-83
2023/12/14 04:12:48;;;;;;;18.98;8.57;;;3.50;82.20;;;;;;5071160;28;20145;-82
2023/12/14 04:15:32;;;;;;;14.27;8.23;;;3.50;82.30;;;;;;5071701;28;20044;-83
2023/12/14 04:18:16;;;;;;;17.75;8.48;;;3.50;82.30;;;;;;5071786;28;20047;-83
2023/12/14 04:21:00;;;;;;;17.80;8.35;;;3.50;82.30;;;;;;5071544;28;20043;-83
2023/12/14 04:23:45;;;;;;;19.90;8.82;;;3.50;82.10;;;;;;5071227;28;20075;-83
2023/12/14 04:26:30;;;;;;;21.42;7.88;;;3.50;82.20;;;;;;5071382;28;20089;-83
2023/12/14 04:29:14;;;;;;;21.98;8.60;;;3.50;82.20;;;;;;5071643;28;20043;-83
2023/12/14 04:31:58;;;;;;;22.60;8.00;;;3.50;82.30;;;;;;5071055;28;20039;-83
2023/12/14 04:34:42;;;;;;;18.20;8.10;;;3.50;82.20;;;;;;5070936;28;20499;-83
2023/12/14 04:37:26;;;;;;;20.20;8.27;;;3.50;82.20;;;;;;5082403;28;20060;-83
2023/12/14 04:40:10;;;;;;;19.98;8.27;;;3.50;82.30;;;;;;5071339;28;20385;-83
2023/12/14 04:42:54;;;;;;;16.38;8.20;;;3.50;82.20;;;;;;5084244;28;20075;-83
2023/12/14 04:45:38;;;;;;;19.95;8.02;;;3.50;82.30;;;;;;5070890;28;20043;-85
2023/12/14 04:48:22;;;;;;;17.75;7.72;;;3.50;82.10;;;;;;5071432;28;20044;-83
2023/12/14 04:51:11;;;;;;;19.40;7.95;;;3.50;82.00;;;;;;5071464;28;20048;-83
2023/12/14 04:53:55;;;;;;;21.13;8.77;;;3.50;82.20;;;;;;5070732;28;20082;-83
2023/12/14 04:56:41;;;;;;;17.48;8.65;;;3.50;82.20;;;;;;5070532;28;20052;-84
2023/12/14 04:59:25;;;;;;;16.88;7.50;;;3.50;82.20;;;;;;5083345;28;20396;-83
2023/12/14 05:02:09;;;;;;;15.38;7.95;;;3.50;82.10;;;;;;5071296;28;20035;-83
2023/12/14 05:04:53;;;;;;;18.42;7.55;;;3.50;82.10;;;;;;5070280;28;20102;-83
2023/12/14 05:07:38;;;;;;;18.70;7.80;;;3.50;82.30;;;;;;5070552;28;20047;-83
2023/12/14 05:10:22;;;;;;;20.45;8.38;;;3.50;82.40;;;;;;5071234;28;20055;-83
2023/12/14 05:13:06;;;;;;;16.23;8.07;;;3.50;82.30;;;;;;5070898;28;20443;-83
2023/12/14 05:15:51;;;;;;;20.50;8.80;;;3.50;82.30;;;;;;5070353;28;20052;-83
2023/12/14 05:18:36;;;;;;;14.77;8.27;;;3.50;82.30;;;;;;5060190;28;20093;-83
2023/12/14 05:21:20;;;;;;;18.50;8.93;;;3.50;82.40;;;;;;5070953;28;20032;-83
2023/12/14 05:24:05;;;;;;;18.30;9.02;;;3.50;82.50;;;;;;5070633;28;20103;-83
2023/12/14 05:26:50;;;;;;;20.58;10.40;;;3.50;82.50;;;;;;5057361;28;20094;-83
2023/12/14 05:29:34;;;;;;;19.20;9.00;;;3.50;82.60;;;;;;5070811;28;20044;-83
2023/12/14 05:32:18;;;;;;;17.05;7.93;;;3.50;82.10;;;;;;5078068;28;20048;-83
2023/12/14 05:35:02;;;;;;;14.32;7.60;;;3.50;82.30;;;;;;5083279;28;20097;-83
2023/12/14 05:37:46;;;;;;;15.55;8.00;;;3.50;82.30;;;;;;5070133;28;20136;-85
2023/12/14 05:40:31;;;;;;;14.70;7.90;;;3.50;81.80;;;;;;5069149;28;20090;-89
2023/12/14 05:43:15;;;;;;;16.50;8.23;;;3.50;81.90;;;;;;5067021;28;20082;-84
2023/12/14 05:45:59;;;;;;;17.08;8.23;;;3.50;82.10;;;;;;5058740;28;20067;-84
2023/12/14 05:48:43;;;;;;;19.00;9.05;;;3.50;82.10;;;;;;5056322;28;20070;-84
2023/12/14 05:51:32;;;;;;;15.85;7.60;;;3.50;82.10;;;;;;5059800;28;20109;-84
2023/12/14 05:54:16;;;;;;;16.52;9.25;;;3.50;82.20;;;;;;5059822;28;20460;-84
2023/12/14 05:57:00;;;;;;;17.63;9.00;;;3.50;82.20;;;;;;5059257;28;20095;-84
2023/12/14 05:59:44;;;;;;;17.85;9.00;;;3.50;82.10;;;;;;5078578;28;20547;-84
2023/12/14 06:02:28;;;;;;;20.05;9.18;;;3.50;82.10;;;;;;5077981;28;20036;-84
2023/12/14 06:05:12;;;;;;;15.40;8.23;;;3.50;82.00;;;;;;5082074;28;20052;-83
2023/12/14 06:08:00;;;;;;;16.60;9.05;;;3.50;81.90;;;;;;5063818;28;20044;-84
2023/12/14 06:10:44;;;;;;;14.77;8.88;;;3.50;82.00;;;;;;5055263;28;20114;-84
2023/12/14 06:13:28;;;;;;;17.02;8.02;;;3.50;81.50;;;;;;5056776;28;20511;-84
2023/12/14 06:16:12;;;;;;;17.90;8.98;;;3.50;81.60;;;;;;5057699;28;20047;-84
2023/12/14 06:18:56;;;;;;;15.95;9.02;;;3.50;81.90;;;;;;5078566;28;20052;-84
2023/12/14 06:21:40;;;;;;;18.67;8.95;;;3.50;81.70;;;;;;5060589;28;20098;-84
2023/12/14 06:24:24;;;;;;;15.27;7.97;;;3.50;81.90;;;;;;5062205;28;20078;-83
2023/12/14 06:27:08;;;;;;;13.82;6.97;;;3.50;81.30;;;;;;5070147;28;20503;-86
2023/12/14 06:29:53;;;;;;;13.10;8.13;;;3.50;81.20;;;;;;5085781;28;20121;-84
2023/12/14 06:32:37;;;;;;;14.02;7.20;;;3.50;81.50;;;;;;5054595;28;20071;-84
2023/12/14 06:35:21;;;;;;;14.65;7.32;;;3.50;81.10;;;;;;5042342;28;20491;-84
2023/12/14 06:38:06;;;;;;;12.93;7.78;;;3.50;81.10;;;;;;5075157;28;20102;-84
2023/12/14 06:40:50;;;;;;;12.32;7.63;;;3.50;81.30;;;;;;5038454;28;20046;-84
2023/12/14 06:43:34;;;;;;;14.82;6.80;;;3.50;81.50;;;;;;5037221;28;20599;-84
2023/12/14 06:46:19;;;;;;;15.10;7.80;;;3.40;81.40;;;;;;5038402;28;20095;-84
2023/12/14 06:49:03;;;;;;;12.55;7.25;;;3.40;81.50;;;;;;5041352;28;20102;-85
2023/12/14 06:51:47;;;;;;;16.90;7.47;;;3.50;81.40;;;;;;5046338;28;20044;-83
2023/12/14 06:54:31;;;;;;;14.40;7.60;;;3.40;81.50;;;;;;5043922;28;20120;-83
2023/12/14 06:57:15;;;;;;;15.93;8.30;;;3.40;81.50;;;;;;5074706;28;20624;-84
2023/12/14 06:59:59;;;;;;;16.02;8.32;;;3.40;81.60;;;;;;5040284;28;20585;-84
2023/12/14 07:02:44;;;;;;;17.02;9.27;;;3.40;81.50;;;;;;5050666;28;20061;-83
2023/12/14 07:05:28;;;;;;;16.63;8.68;;;3.40;81.70;;;;;;5052229;28;20068;-84
2023/12/14 07:08:12;;;;;;;20.38;8.70;;;3.40;81.70;;;;;;5033579;28;20064;-83
2023/12/14 07:10:57;;;;;;;15.75;7.95;;;3.40;81.70;;;;;;5074133;28;20071;-85
2023/12/14 07:13:41;;;;;;;15.48;9.20;;;3.40;81.50;;;;;;5036826;28;20088;-83
2023/12/14 07:16:25;;;;;;;17.98;9.63;;;3.40;81.70;;;;;;5038531;28;20056;-83
2023/12/14 07:19:10;;;;;;;17.63;9.10;;;3.40;81.90;;;;;;5067188;28;20501;-84
2023/12/14 07:21:55;;;;;;;20.40;10.52;;;3.50;81.90;;;;;;5041105;28;20072;-83
2023/12/14 07:24:39;;;;;;;19.38;9.00;;;3.50;82.00;;;;;;5071991;28;20068;-84
2023/12/14 07:27:23;;;;;;;30.92;11.38;;;3.50;82.00;;;;;;5040351;28;20048;-84
2023/12/14 07:30:09;;;;;;;22.73;9.95;;;3.50;82.00;;;;;;5047391;28;20496;-84
2023/12/14 07:32:54;;;;;;;19.92;11.43;;;3.50;82.10;;;;;;5041914;28;20486;-84
2023/12/14 07:35:38;;;;;;;24.10;10.30;;;3.50;82.20;;;;;;5034808;28;20500;-84
2023/12/14 07:38:22;;;;;;;20.58;10.90;;;3.50;82.10;;;;;;5037902;28;20139;-84
2023/12/14 07:41:06;;;;;;;23.95;11.07;;;3.50;82.20;;;;;;5043298;28;20049;-84
2023/12/14 07:43:51;;;;;;;24.13;10.18;;;3.50;82.20;;;;;;5045248;28;20405;-84
2023/12/14 07:46:39;;;;;;;25.20;11.52;;;3.50;82.20;;;;;;5051279;28;20508;-84
2023/12/14 07:49:23;;;;;;;24.55;11.20;;;3.50;82.30;;;;;;5052584;28;20769;-84
2023/12/14 07:52:09;;;;;;;26.13;10.60;;;3.50;82.30;;;;;;5038502;28;20166;-84
2023/12/14 07:54:53;;;;;;;28.95;10.70;;;3.50;82.30;;;;;;5035550;28;20069;-84
2023/12/14 07:57:37;;;;;;;21.92;10.25;;;3.50;82.40;;;;;;5040702;28;20040;-84
2023/12/14 08:00:21;;;;;;;27.85;10.57;;;3.50;82.20;;;;;;5047730;28;20397;-84
2023/12/14 08:03:06;;;;;;;25.35;10.00;;;3.50;82.30;;;;;;5036250;28;20083;-85
2023/12/14 08:05:50;;;;;;;25.00;10.77;;;3.50;82.40;;;;;;5059545;28;20401;-84
2023/12/14 08:08:34;;;;;;;30.80;11.93;;;3.50;82.20;;;;;;5035782;28;20035;-84
2023/12/14 08:11:19;;;;;;;24.30;11.15;;;3.50;82.30;;;;;;5071928;28;20094;-84
2023/12/14 08:14:03;;;;;;;23.75;10.38;;;3.50;82.40;;;;;;5047282;28;20040;-84
2023/12/14 08:16:48;;;;;;;25.65;11.45;;;3.50;82.50;;;;;;5031920;28;20065;-83
2023/12/14 08:19:32;;;;;;;24.70;10.85;;;3.50;82.50;;;;;;5033952;28;21395;-84
2023/12/14 08:22:16;;;;;;;26.50;11.70;;;3.60;82.40;;;;;;5034167;28;20505;-83
2023/12/14 08:25:00;;;;;;;23.45;10.05;;;3.60;82.20;;;;;;5035964;28;20052;-84
2023/12/14 08:27:44;;;;;;;27.15;10.48;;;3.60;82.10;;;;;;5040920;28;20067;-84
2023/12/14 08:30:29;;;;;;;29.20;11.32;;;3.60;82.30;;;;;;5042461;28;20257;-84
2023/12/14 08:33:13;;;;;;;27.13;10.13;;;3.60;82.60;;;;;;5035069;28;20568;-84
2023/12/14 08:35:58;;;;;;;28.17;10.85;;;3.60;82.60;;;;;;5033915;28;20044;-83
2023/12/14 08:38:42;;;;;;;28.30;11.00;;;3.60;82.50;;;;;;5052968;28;20431;-84
2023/12/14 08:41:26;;;;;;;23.63;10.65;;;3.60;82.60;;;;;;5058561;28;20047;-84
2023/12/14 08:44:11;;;;;;;21.88;10.25;;;3.60;82.50;;;;;;5057550;28;20056;-84
2023/12/14 08:46:55;;;;;;;27.33;11.80;;;3.60;82.50;;;;;;5065393;28;20602;-84
2023/12/14 08:49:39;;;;;;;27.15;11.15;;;3.70;82.50;;;;;;5046911;28;20408;-84
2023/12/14 08:52:23;;;;;;;28.48;11.07;;;3.70;82.60;;;;;;5046287;28;20036;-85
2023/12/14 08:55:08;;;;;;;23.17;10.88;;;3.70;82.70;;;;;;5028286;28;20047;-83
2023/12/14 08:57:53;;;;;;;30.73;11.60;;;3.70;82.60;;;;;;5065090;28;20094;-84
2023/12/14 09:00:36;;;;;;;26.73;10.85;;;3.70;82.60;;;;;;5048800;28;20150;-85
2023/12/14 09:03:20;;;;;;;23.80;11.45;;;3.70;82.50;;;;;;5062291;28;20085;-85
2023/12/14 09:06:05;;;;;;;29.50;12.32;;;3.70;82.50;;;;;;5060889;28;20184;-86
2023/12/14 09:08:50;;;;;;;27.00;10.95;;;3.80;82.50;;;;;;5057897;28;20090;-87
2023/12/14 09:11:36;;;;;;;22.88;10.98;;;3.80;82.50;;;;;;5064405;28;20032;-84
2023/12/14 09:14:20;;;;;;;28.83;11.90;;;3.80;82.40;;;;;;5062440;28;20075;-88
2023/12/14 09:17:04;;;;;;;27.60;12.10;;;3.80;82.30;;;;;;5063718;28;20078;-87
2023/12/14 09:19:48;;;;;;;25.63;10.95;;;3.90;82.40;;;;;;5059848;28;20546;-87
2023/12/14 09:22:32;;;;;;;23.27;10.32;;;3.90;82.50;;;;;;5042867;28;20540;-86
2023/12/14 09:25:16;;;;;;;27.27;11.95;;;3.90;82.20;;;;;;5064406;28;20124;-85
2023/12/14 09:28:00;;;;;;;27.75;11.93;;;3.90;82.40;;;;;;5047101;28;20047;-86
2023/12/14 09:30:45;;;;;;;23.75;10.77;;;3.90;82.40;;;;;;5050900;28;20078;-87
2023/12/14 09:33:30;;;;;;;25.60;11.48;;;3.90;82.10;;;;;;5070120;28;20094;-86
2023/12/14 09:36:15;;;;;;;24.98;10.70;;;3.90;82.30;;;;;;5083807;28;20047;-86
2023/12/14 09:38:59;;;;;;;25.42;11.15;;;3.90;82.30;;;;;;5070951;28;20408;-86
2023/12/14 09:41:43;;;;;;;23.48;10.60;;;3.90;82.30;;;;;;5083801;28;20128;-87
2023/12/14 09:44:27;;;;;;;23.88;10.95;;;4.00;82.40;;;;;;5085022;28;20107;-87
2023/12/14 09:47:12;;;;;;;26.65;11.43;;;4.00;82.20;;;;;;5059136;28;20069;-86
2023/12/14 09:49:56;;;;;;;26.27;11.88;;;4.00;82.20;;;;;;5074385;28;20044;-86
2023/12/14 09:52:44;;;;;;;31.77;13.43;;;4.00;82.30;;;;;;5073845;28;20040;-86
2023/12/14 09:55:31;;;;;;;25.52;11.48;;;4.00;82.00;;;;;;5073496;28;20055;-85
2023/12/14 09:58:15;;;;;;;28.17;12.10;;;4.00;82.10;;;;;;5074288;28;20090;-85
2023/12/14 10:01:04;;;;;;;27.13;12.38;;;4.10;82.00;;;;;;5074192;28;20082;-86
2023/12/14 10:03:48;;;;;;;29.38;11.60;;;4.10;82.10;;;;;;5074239;28;20047;-86
2023/12/14 10:06:33;;;;;;;20.95;11.90;;;4.10;81.50;;;;;;5074469;28;20057;-85
2023/12/14 10:09:23;;;;;;;31.45;12.98;;;4.10;81.90;;;;;;5074167;28;20538;-87
2023/12/14 10:12:09;;;;;;;23.25;11.73;;;4.10;82.10;;;;;;5074171;28;20040;-86
2023/12/14 10:15:06;;;;;;;31.55;11.77;;;4.10;82.00;;;;;;5073948;28;20679;-86
2023/12/14 10:17:54;;;;;;;27.02;12.45;;;4.20;81.40;;;;;;5073924;28;20059;-86
2023/12/14 10:20:38;;;;;;;30.77;11.98;;;4.20;81.90;;;;;;5073403;28;20059;-83
2023/12/14 10:23:24;;;;;;;32.42;11.90;;;4.20;82.00;;;;;;5058817;28;20499;-85
2023/12/14 10:26:08;;;;;;;27.50;12.27;;;4.30;81.70;;;;;;5058519;28;20442;-83
2023/12/14 10:28:53;;;;;;;23.58;11.20;;;4.30;82.10;;;;;;5058579;28;20404;-83
2023/12/14 10:31:37;;;;;;;25.63;11.52;;;4.30;81.40;;;;;;5072969;28;20087;-83
2023/12/14 10:34:21;;;;;;;23.00;10.93;;;4.40;81.90;;;;;;5073729;28;20400;-83
2023/12/14 10:37:07;;;;;;;28.65;11.95;;;4.40;81.80;;;;;;5073510;28;20542;-82
2023/12/14 10:39:53;;;;;;;27.55;11.70;;;4.40;81.90;;;;;;5059783;28;20101;-80
2023/12/14 10:42:42;;;;;;;22.13;11.35;;;4.40;82.00;;;;;;5045149;28;20539;-82
2023/12/14 10:45:33;;;;;;;28.83;11.20;;;4.40;82.30;;;;;;5064959;28;20039;-84
2023/12/14 10:48:20;;;;;;;29.30;11.85;;;4.50;82.20;;;;;;5066296;28;20420;-83
2023/12/14 10:51:05;;;;;;;27.08;12.27;;;4.50;82.20;;;;;;5066966;28;20044;-84
2023/12/14 10:53:51;;;;;;;29.15;12.25;;;4.50;82.40;;;;;;5065284;28;20127;-83
2023/12/14 10:56:36;;;;;;;21.30;11.75;;;4.60;82.60;;;;;;5062675;28;20127;-83
2023/12/14 10:59:21;;;;;;;24.65;11.63;;;4.60;82.40;;;;;;5062230;28;20095;-83
2023/12/14 11:02:10;;;;;;;25.55;11.73;;;4.60;80.90;;;;;;5059997;28;20511;-82
2023/12/14 11:05:00;;;;;;;24.27;11.77;;;4.60;82.20;;;;;;5066221;28;20048;-83
2023/12/14 11:07:47;;;;;;;20.33;10.73;;;4.60;82.80;;;;;;5062457;28;20086;-82
2023/12/14 11:10:56;;;;;;;22.88;11.80;;;4.70;82.40;;;;;;5058912;28;20035;-84
2023/12/14 11:13:41;;;;;;;22.85;10.77;;;4.70;82.20;;;;;;5065792;28;20120;-83
2023/12/14 11:16:30;;;;;;;23.33;10.88;;;4.70;82.10;;;;;;5061268;28;20504;-83
2023/12/14 11:19:28;;;;;;;24.50;10.95;;;4.70;82.50;;;;;;5060510;28;20522;-83
2023/12/14 11:22:23;;;;;;;20.70;10.13;;;4.70;82.20;;;;;;5064861;28;20059;-82
2023/12/14 11:25:08;;;;;;;19.63;10.52;;;4.70;82.40;;;;;;5066247;28;20105;-83
2023/12/14 11:27:51;;;;;;;22.65;11.35;;;4.80;82.20;;;;;;5064450;28;20695;-83
2023/12/14 11:30:36;;;;;;;20.38;10.15;;;4.80;81.90;;;;;;5050418;28;20107;-83
2023/12/14 11:33:21;;;;;;;24.45;11.00;;;4.90;82.00;;;;;;5072417;28;20116;-83
2023/12/14 11:36:06;;;;;;;23.45;10.50;;;4.90;82.50;;;;;;5072371;28;20546;-82
2023/12/14 11:38:50;;;;;;;19.33;10.13;;;4.90;82.30;;;;;;5071638;28;20174;-82
2023/12/14 11:41:36;;;;;;;23.15;10.57;;;5.00;82.10;;;;;;5072228;28;20040;-84
2023/12/14 11:44:25;;;;;;;25.10;11.25;;;5.00;82.60;;;;;;5057116;28;20197;-82
2023/12/14 11:47:09;;;;;;;21.05;10.32;;;5.10;82.20;;;;;;5056973;28;20394;-82
2023/12/14 11:49:54;;;;;;;21.23;10.65;;;5.20;82.20;;;;;;5071746;28;20090;-82
2023/12/14 11:52:38;;;;;;;22.90;10.90;;;5.20;82.10;;;;;;5071316;28;20038;-83
2023/12/14 11:55:22;;;;;;;22.70;10.13;;;5.10;82.80;;;;;;5071951;28;20048;-82
2023/12/14 11:58:07;;;;;;;18.90;10.20;;;5.10;82.10;;;;;;5072141;28;20447;-82
2023/12/14 12:00:51;;;;;;;19.92;10.00;;;5.10;82.70;;;;;;5071170;28;20051;-83
2023/12/14 12:03:35;;;;;;;26.27;10.25;;;5.10;82.50;;;;;;5056850;28;20039;-83
2023/12/14 12:06:24;;;;;;;23.63;10.40;;;5.10;82.80;;;;;;5070972;28;20447;-82
2023/12/14 12:09:10;;;;;;;18.10;10.38;;;5.10;82.10;;;;;;5056549;28;20030;-82
2023/12/14 12:11:54;;;;;;;19.88;10.07;;;5.10;82.10;;;;;;5071389;28;20048;-83
2023/12/14 12:14:40;;;;;;;27.40;10.30;;;5.10;82.30;;;;;;5071166;28;20082;-87
2023/12/14 12:17:24;;;;;;;19.40;10.82;;;5.20;82.40;;;;;;5071712;28;20035;-82
2023/12/14 12:20:08;;;;;;;22.45;11.00;;;5.10;82.20;;;;;;5071802;28;20099;-82
2023/12/14 12:22:54;;;;;;;21.13;10.30;;;5.20;82.30;;;;;;5068320;28;20063;-82
2023/12/14 12:25:38;;;;;;;18.50;9.30;;;5.10;82.10;;;;;;5062810;28;20043;-82
2023/12/14 12:28:22;;;;;;;19.40;10.20;;;5.10;82.10;;;;;;5060814;28;20508;-82
2023/12/14 12:31:06;;;;;;;17.50;9.70;;;5.10;82.00;;;;;;5067247;28;20043;-83
2023/12/14 12:33:50;;;;;;;19.67;9.60;;;5.20;81.40;;;;;;5053947;28;20043;-82
2023/12/14 12:36:35;;;;;;;20.10;9.82;;;5.10;81.70;;;;;;5055390;28;20056;-83
2023/12/14 12:39:20;;;;;;;18.63;9.07;;;5.10;81.50;;;;;;5055316;28;20182;-82
2023/12/14 12:42:05;;;;;;;24.05;10.35;;;5.10;81.20;;;;;;5056288;28;20050;-83
2023/12/14 12:44:49;;;;;;;18.35;9.18;;;5.10;80.30;;;;;;5060797;28;20051;-83
2023/12/14 12:47:34;;;;;;;22.10;10.73;;;5.10;81.20;;;;;;5065464;28;20496;-82
2023/12/14 12:50:18;;;;;;;18.58;9.32;;;5.10;81.10;;;;;;5054439;28;20075;-83
2023/12/14 12:53:02;;;;;;;20.83;9.77;;;5.10;80.90;;;;;;5075414;28;20102;-82
2023/12/14 12:55:46;;;;;;;23.70;11.18;;;5.10;81.10;;;;;;5054973;28;20080;-83
2023/12/14 12:58:31;;;;;;;18.98;10.77;;;5.10;80.40;;;;;;5059942;28;20162;-82
2023/12/14 13:01:15;;;;;;;20.85;10.68;;;5.10;79.80;;;;;;5057965;28;20044;-82
2023/12/14 13:04:01;;;;;;;20.45;11.25;;;5.10;80.70;;;;;;5059020;28;20047;-82
2023/12/14 13:06:45;;;;;;;21.25;10.10;;;5.00;80.00;;;;;;5063097;28;20078;-83
2023/12/14 13:09:30;;;;;;;19.88;10.70;;;5.00;79.90;;;;;;5061268;28;20040;-82
2023/12/14 13:12:14;;;;;;;16.25;9.95;;;5.00;79.60;;;;;;5058183;28;20040;-82
2023/12/14 13:14:59;;;;;;;19.83;9.85;;;5.00;80.20;;;;;;5064503;28;20044;-81
2023/12/14 13:17:44;;;;;;;15.07;9.25;;;5.00;79.90;;;;;;5063588;28;20504;-81
2023/12/14 13:20:28;;;;;;;21.88;9.82;;;5.00;79.50;;;;;;5067204;28;20411;-82
2023/12/14 13:23:12;;;;;;;16.70;9.70;;;5.10;80.20;;;;;;5068294;28;20043;-79
2023/12/14 13:25:56;;;;;;;19.85;10.35;;;5.10;80.50;;;;;;5074366;28;20043;-83
2023/12/14 13:28:40;;;;;;;16.73;10.38;;;5.00;80.50;;;;;;5066328;28;20036;-82
2023/12/14 13:31:24;;;;;;;19.33;10.25;;;5.00;80.40;;;;;;5067839;28;20102;-82
2023/12/14 13:34:09;;;;;;;19.27;10.15;;;5.00;79.80;;;;;;5059429;28;20040;-82
2023/12/14 13:36:53;;;;;;;17.30;9.85;;;5.00;79.70;;;;;;5073808;28;20480;-83
2023/12/14 13:39:38;;;;;;;15.68;8.95;;;5.00;80.00;;;;;;5074785;28;20102;-82
2023/12/14 13:42:22;;;;;;;19.33;10.00;;;5.00;80.10;;;;;;5087800;28;20040;-82
2023/12/14 13:45:07;;;;;;;14.05;8.82;;;4.90;80.20;;;;;;5074016;28;20044;-82
2023/12/14 13:47:51;;;;;;;15.85;10.13;;;4.90;79.60;;;;;;5074558;28;20039;-83
2023/12/14 13:50:36;;;;;;;19.17;10.45;;;4.90;80.30;;;;;;5074428;28;20163;-82
2023/12/14 13:53:20;;;;;;;17.42;10.45;;;4.80;80.50;;;;;;5074429;28;20104;-82
2023/12/14 13:56:04;;;;;;;18.50;9.85;;;4.80;80.50;;;;;;5073503;28;20416;-82
2023/12/14 13:58:49;;;;;;;16.70;10.13;;;4.80;79.60;;;;;;5073362;28;20086;-82
2023/12/14 14:01:34;;;;;;;18.48;10.27;;;4.80;79.90;;;;;;5074402;28;20039;-82
2023/12/14 14:04:18;;;;;;;20.42;10.02;;;4.70;79.70;;;;;;5073337;28;20047;-82
2023/12/14 14:07:02;;;;;;;17.20;11.10;;;4.70;79.80;;;;;;5086922;28;20074;-82
2023/12/14 14:09:47;;;;;;;23.63;11.23;;;4.70;80.70;;;;;;5074258;28;20036;-82
2023/12/14 14:12:31;;;;;;;19.88;10.90;;;4.70;80.70;;;;;;5087152;28;20079;-82